createdAt,value
2023-01-02T00:02:14.713Z,117.61
2023-01-02T00:05:21.081Z,128.30
2023-01-02T00:08:30.685Z,144.04
2023-01-02T00:11:37.936Z,148.37
2023-01-02T00:14:44.932Z,138.85
2023-01-02T00:17:51.026Z,143.31
2023-01-02T00:20:58.399Z,140.70
2023-01-02T00:24:07.897Z,134.81
2023-01-02T00:27:14.776Z,128.77
2023-01-02T00:30:21.160Z,130.13
2023-01-02T00:33:28.227Z,125.29
2023-01-02T00:36:34.401Z,121.76
2023-01-02T00:39:44.009Z,121.39
2023-01-02T00:42:50.164Z,111.62
2023-01-02T00:45:57.341Z,112.32
2023-01-02T00:49:03.459Z,108.57
2023-01-02T00:52:10.467Z,107.03
2023-01-02T00:55:19.348Z,105.32
2023-01-02T00:58:26.435Z,103.34
2023-01-02T01:01:32.928Z,104.87
2023-01-02T01:04:41.164Z,109.36
2023-01-02T01:07:47.225Z,106.87
2023-01-02T01:10:56.708Z,108.10
2023-01-02T01:14:02.821Z,112.95
2023-01-02T01:17:10.205Z,117.24
2023-01-02T01:20:16.366Z,120.52
2023-01-02T01:23:25.013Z,127.25
2023-01-02T01:26:33.731Z,132.05
2023-01-02T01:29:40.685Z,131.89
2023-01-02T01:32:46.832Z,129.84
2023-01-02T01:35:53.662Z,118.20
2023-01-02T01:38:59.785Z,115.45
2023-01-02T01:42:09.426Z,114.78
2023-01-02T01:45:19.722Z,115.94
2023-01-02T01:48:27.316Z,117.06
2023-01-02T01:51:40.047Z,113.16
2023-01-02T01:54:54.860Z,114.62
2023-01-02T01:58:09.903Z,127.50
2023-01-02T02:01:20.954Z,122.97
2023-01-02T02:04:30.084Z,128.86
2023-01-02T02:07:45.701Z,156.75
2023-01-02T02:10:53.394Z,152.65
2023-01-02T02:14:04.665Z,151.11
2023-01-02T02:17:26.474Z,167.72
2023-01-02T02:20:49.221Z,174.10
2023-01-02T02:24:32.250Z,154.62
2023-01-02T02:28:16.175Z,143.43
2023-01-02T02:31:42.966Z,168.21
2023-01-02T02:35:05.746Z,165.82
2023-01-02T02:38:24.980Z,152.49
2023-01-02T02:41:42.127Z,147.90
2023-01-02T02:45:05.485Z,145.60
2023-01-02T02:48:26.485Z,139.53
2023-01-02T02:51:45.427Z,131.78
2023-01-02T02:55:04.423Z,121.81
2023-01-02T02:58:12.242Z,126.98
2023-01-02T03:01:26.800Z,129.74
2023-01-02T03:04:38.854Z,123.24
2023-01-02T03:08:05.088Z,147.65
2023-01-02T03:11:12.948Z,166.16
2023-01-02T03:14:33.772Z,185.74
2023-01-02T03:18:06.354Z,185.06
2023-01-02T03:21:31.205Z,179.07
2023-01-02T03:24:44.062Z,151.94
2023-01-02T03:27:55.931Z,164.79
2023-01-02T03:31:06.800Z,168.99
2023-01-02T03:34:19.143Z,177.44
2023-01-02T03:37:36.479Z,177.27
2023-01-02T03:40:52.000Z,161.79
2023-01-02T03:44:03.681Z,185.97
2023-01-02T03:47:31.449Z,203.79
2023-01-02T03:50:50.109Z,218.67
2023-01-02T03:54:03.215Z,245.30
2023-01-02T03:57:25.245Z,244.58
2023-01-02T04:00:44.569Z,252.83
2023-01-02T04:04:01.123Z,270.25
2023-01-02T04:07:16.468Z,263.64
2023-01-02T04:10:27.874Z,268.63
2023-01-02T04:13:45.461Z,283.58
2023-01-02T04:16:55.678Z,255.24
2023-01-02T04:20:10.043Z,232.23
2023-01-02T04:23:22.616Z,229.52
2023-01-02T04:26:41.771Z,230.72
2023-01-02T04:29:47.964Z,225.74
2023-01-02T04:32:57.419Z,225.30
2023-01-02T04:36:12.225Z,209.69
2023-01-02T04:39:20.011Z,174.00
2023-01-02T04:42:30.032Z,142.44
2023-01-02T04:45:36.992Z,130.66
2023-01-02T04:48:43.053Z,152.81
2023-01-02T04:51:49.961Z,160.97
2023-01-02T04:54:56.021Z,153.32
2023-01-02T04:58:05.649Z,175.71
2023-01-02T05:01:13.224Z,442.76
2023-01-02T05:04:20.275Z,445.78
2023-01-02T05:07:26.391Z,261.60
2023-01-02T05:10:33.430Z,228.10
2023-01-02T05:13:42.623Z,212.58
2023-01-02T05:16:49.704Z,196.54
2023-01-02T05:19:56.214Z,175.69
2023-01-02T05:23:15.846Z,171.24
2023-01-02T05:26:22.302Z,175.65
2023-01-02T05:29:32.813Z,183.21
2023-01-02T05:32:39.154Z,195.94
2023-01-02T05:35:46.172Z,209.31
2023-01-02T05:38:52.917Z,295.11
2023-01-02T05:41:59.751Z,307.36
2023-01-02T05:45:10.372Z,306.46
2023-01-02T05:48:18.207Z,321.14
2023-01-02T05:51:24.315Z,288.73
2023-01-02T05:54:31.163Z,286.39
2023-01-02T05:57:38.032Z,305.10
2023-01-02T06:00:47.754Z,315.46
2023-01-02T06:03:57.325Z,310.65
2023-01-02T06:07:04.332Z,324.36
2023-01-02T06:10:12.368Z,330.76
2023-01-02T06:13:19.322Z,290.97
2023-01-02T06:16:29.258Z,273.41
2023-01-02T06:19:36.350Z,289.63
2023-01-02T06:22:42.464Z,305.52
2023-01-02T06:25:50.069Z,361.37
2023-01-02T06:28:59.490Z,557.00
2023-01-02T06:32:09.513Z,1077.47
2023-01-02T06:35:15.676Z,455.06
2023-01-02T06:38:22.747Z,313.68
2023-01-02T06:41:28.981Z,305.34
2023-01-02T06:44:35.871Z,298.20
2023-01-02T06:47:44.740Z,312.49
2023-01-02T06:50:51.808Z,331.02
2023-01-02T06:53:58.117Z,352.04
2023-01-02T06:57:05.068Z,357.85
2023-01-02T07:00:14.022Z,370.03
2023-01-02T07:03:23.541Z,309.09
2023-01-02T07:06:30.733Z,289.09
2023-01-02T07:09:38.391Z,291.30
2023-01-02T07:12:45.091Z,329.48
2023-01-02T07:15:52.110Z,365.10
2023-01-02T07:19:00.840Z,613.23
2023-01-02T07:22:07.837Z,1206.56
2023-01-02T07:25:14.134Z,1070.34
2023-01-02T07:28:21.096Z,1105.95
2023-01-02T07:31:29.473Z,969.88
2023-01-02T07:34:39.210Z,693.47
2023-01-02T07:37:45.537Z,619.71
2023-01-02T07:40:52.624Z,535.70
2023-01-02T07:43:59.491Z,512.98
2023-01-02T07:47:06.613Z,527.43
2023-01-02T07:50:15.742Z,532.12
2023-01-02T07:53:22.894Z,529.93
2023-01-02T07:56:30.112Z,498.82
2023-01-02T07:59:37.112Z,478.03
2023-01-02T08:02:43.350Z,487.08
2023-01-02T08:05:53.016Z,492.52
2023-01-02T08:08:59.169Z,472.64
2023-01-02T08:12:06.082Z,491.36
2023-01-02T08:15:13.346Z,498.13
2023-01-02T08:18:20.418Z,530.21
2023-01-02T08:21:30.177Z,520.05
2023-01-02T08:24:37.341Z,490.14
2023-01-02T08:27:45.086Z,450.49
2023-01-02T08:30:52.095Z,468.25
2023-01-02T08:33:58.311Z,502.75
2023-01-02T08:37:07.777Z,487.96
2023-01-02T08:40:15.532Z,480.84
2023-01-02T08:43:22.430Z,473.41
2023-01-02T08:46:28.530Z,428.16
2023-01-02T08:49:35.743Z,377.69
2023-01-02T08:52:44.525Z,344.72
2023-01-02T08:55:51.432Z,335.86
2023-01-02T08:59:00.282Z,337.05
2023-01-02T09:02:07.235Z,351.77
2023-01-02T09:05:13.743Z,353.39
2023-01-02T09:08:23.247Z,343.92
2023-01-02T09:11:32.827Z,344.78
2023-01-02T09:14:39.773Z,346.65
2023-01-02T09:17:47.975Z,349.78
2023-01-02T09:34:06.067Z,371.16
2023-01-02T09:37:12.964Z,356.05
2023-01-02T09:40:19.386Z,330.89
2023-01-02T09:43:37.380Z,318.10
2023-01-02T09:46:53.823Z,303.35
2023-01-02T09:50:10.388Z,256.43
2023-01-02T09:53:19.692Z,230.34
2023-01-02T09:56:36.196Z,219.00
2023-01-02T09:59:55.847Z,241.40
2023-01-02T10:03:19.904Z,244.27
2023-01-02T10:06:42.912Z,259.20
2023-01-02T10:10:04.978Z,247.12
2023-01-02T10:13:44.212Z,245.69
2023-01-02T10:16:59.331Z,200.61
2023-01-02T10:20:23.794Z,198.30
2023-01-02T10:23:43.888Z,204.40
2023-01-02T10:26:56.591Z,185.48
2023-01-02T10:30:18.346Z,254.83
2023-01-02T10:33:34.186Z,254.76
2023-01-02T10:36:46.406Z,245.86
2023-01-02T10:39:55.534Z,244.19
2023-01-02T10:43:04.673Z,238.06
2023-01-02T10:46:10.884Z,205.68
2023-01-02T10:49:19.869Z,185.31
2023-01-02T10:52:35.865Z,173.21
2023-01-02T10:55:47.197Z,158.60
2023-01-02T10:58:56.095Z,157.46
2023-01-02T11:02:04.048Z,158.84
2023-01-02T11:05:22.668Z,149.49
2023-01-02T11:08:40.758Z,142.44
2023-01-02T11:11:54.861Z,133.25
2023-01-02T11:15:25.727Z,120.73
2023-01-02T11:18:37.667Z,107.55
2023-01-02T11:21:46.965Z,99.91
2023-01-02T11:25:04.750Z,106.59
2023-01-02T11:28:23.767Z,137.98
2023-01-02T11:31:30.087Z,150.71
2023-01-02T11:34:41.682Z,132.91
2023-01-02T11:37:55.756Z,108.33
2023-01-02T11:41:05.643Z,86.34
2023-01-02T11:44:20.995Z,84.06
2023-01-02T11:47:39.111Z,78.54
2023-01-02T11:50:47.929Z,80.83
2023-01-02T11:53:59.266Z,86.41
2023-01-02T11:57:07.210Z,83.19
2023-01-02T12:00:23.769Z,83.38
2023-01-02T12:03:33.616Z,82.94
2023-01-02T12:07:12.383Z,88.63
2023-01-02T12:10:52.325Z,92.55
2023-01-02T12:14:16.920Z,74.99
2023-01-02T12:17:38.743Z,84.08
2023-01-02T12:21:03.079Z,81.56
2023-01-02T12:25:05.067Z,71.16
2023-01-02T12:28:41.935Z,76.18
2023-01-02T12:32:19.706Z,84.17
2023-01-02T12:35:55.879Z,80.06
2023-01-02T12:39:33.133Z,77.88
2023-01-02T12:43:27.902Z,82.71
2023-01-02T12:47:16.619Z,88.24
2023-01-02T12:50:56.817Z,179.64
2023-01-02T12:54:37.841Z,87.77
2023-01-02T12:57:59.827Z,70.72
2023-01-02T13:01:24.516Z,79.74
2023-01-02T13:04:40.221Z,74.27
2023-01-02T13:07:56.428Z,71.88
2023-01-02T13:11:09.158Z,84.61
2023-01-02T13:14:23.506Z,104.44
2023-01-02T13:17:54.485Z,102.88
2023-01-02T13:21:16.038Z,79.82
2023-01-02T13:24:30.183Z,72.46
2023-01-02T13:27:37.523Z,68.08
2023-01-02T13:31:19.104Z,75.22
2023-01-02T13:34:30.898Z,80.53
2023-01-02T13:37:38.561Z,102.81
2023-01-02T13:40:48.733Z,101.45
2023-01-02T13:44:03.391Z,95.29
2023-01-02T13:47:25.905Z,101.40
2023-01-02T13:50:41.275Z,108.13
2023-01-02T13:53:50.306Z,125.15
2023-01-02T13:57:34.762Z,133.64
2023-01-02T14:00:53.439Z,122.93
2023-01-02T14:04:36.816Z,123.88
2023-01-02T14:07:52.068Z,109.23
2023-01-02T14:11:10.173Z,123.87
2023-01-02T14:14:30.119Z,114.58
2023-01-02T14:17:56.267Z,125.28
2023-01-02T14:21:02.684Z,116.22
2023-01-02T14:24:17.015Z,134.45
2023-01-02T14:27:34.480Z,168.28
2023-01-02T14:30:46.120Z,162.81
2023-01-02T14:33:59.388Z,183.51
2023-01-02T14:37:07.000Z,210.87
2023-01-02T14:40:21.478Z,195.90
2023-01-02T14:43:40.641Z,174.70
2023-01-02T14:46:51.806Z,150.21
2023-01-02T14:50:05.028Z,165.13
2023-01-02T14:53:23.453Z,186.23
2023-01-02T14:56:39.432Z,176.61
2023-01-02T14:59:49.935Z,181.97
2023-01-02T15:03:17.272Z,175.43
2023-01-02T15:06:41.757Z,216.03
2023-01-02T15:09:55.227Z,154.54
2023-01-02T15:13:07.836Z,148.29
2023-01-02T15:16:15.019Z,154.05
2023-01-02T15:19:30.741Z,151.14
2023-01-02T15:22:40.407Z,183.79
2023-01-02T15:25:46.520Z,239.72
2023-01-02T15:28:59.676Z,246.89
2023-01-02T15:32:06.018Z,187.93
2023-01-02T15:35:25.786Z,207.18
2023-01-02T15:38:32.129Z,189.44
2023-01-02T15:41:49.388Z,168.65
2023-01-02T15:45:09.473Z,159.21
2023-01-02T15:48:19.008Z,155.45
2023-01-02T15:51:40.501Z,186.06
2023-01-02T15:54:50.528Z,181.10
2023-01-02T15:57:58.049Z,198.74
2023-01-02T16:01:21.332Z,211.48
2023-01-02T16:04:31.454Z,204.69
2023-01-02T16:07:42.038Z,180.77
2023-01-02T16:10:51.646Z,180.53
2023-01-02T16:14:22.925Z,181.02
2023-01-02T16:17:32.919Z,220.19
2023-01-02T16:20:40.323Z,204.34
2023-01-02T16:23:57.692Z,201.49
2023-01-02T16:27:06.811Z,197.63
2023-01-02T16:30:38.081Z,184.56
2023-01-02T16:33:48.692Z,187.79
2023-01-02T16:37:25.427Z,199.92
2023-01-02T16:41:03.124Z,214.47
2023-01-02T16:44:15.476Z,203.74
2023-01-02T16:47:22.512Z,198.89
2023-01-02T16:50:30.691Z,229.47
2023-01-02T16:53:38.082Z,243.05
2023-01-02T16:56:47.162Z,252.78
2023-01-02T16:59:54.145Z,260.96
2023-01-02T17:03:00.336Z,216.77
2023-01-02T17:06:15.572Z,202.80
2023-01-02T17:09:21.702Z,195.73
2023-01-02T17:12:31.354Z,215.83
2023-01-02T17:15:37.765Z,203.05
2023-01-02T17:18:45.616Z,218.74
2023-01-02T17:21:52.176Z,228.20
2023-01-02T17:24:59.061Z,222.06
2023-01-02T17:28:08.268Z,217.13
2023-01-02T17:31:23.966Z,218.51
2023-01-02T17:34:31.751Z,214.75
2023-01-02T17:37:39.887Z,238.72
2023-01-02T17:40:47.284Z,224.75
2023-01-02T17:44:02.127Z,228.98
2023-01-02T17:47:48.041Z,240.11
2023-01-02T17:50:36.922Z,260.62
2023-01-02T17:53:46.694Z,270.28
2023-01-02T17:56:53.570Z,259.65
2023-01-02T18:00:02.310Z,238.55
2023-01-02T18:03:19.739Z,220.08
2023-01-02T18:06:25.997Z,226.40
2023-01-02T18:09:32.970Z,219.27
2023-01-02T18:12:39.038Z,199.49
2023-01-02T18:15:48.735Z,197.23
2023-01-02T18:18:55.670Z,199.76
2023-01-02T18:22:03.209Z,208.58
2023-01-02T18:25:24.587Z,198.61
2023-01-02T18:28:33.682Z,194.79
2023-01-02T18:31:47.063Z,199.31
2023-01-02T18:34:59.437Z,193.58
2023-01-02T18:38:21.303Z,178.50
2023-01-02T18:41:31.815Z,179.93
2023-01-02T18:44:38.497Z,190.30
2023-01-02T18:47:49.805Z,198.92
2023-01-02T18:51:02.230Z,229.49
2023-01-02T18:54:31.561Z,212.93
2023-01-02T18:57:46.634Z,196.85
2023-01-02T19:00:53.913Z,186.45
2023-01-02T19:04:27.814Z,189.03
2023-01-02T19:07:38.251Z,178.96
2023-01-02T19:10:48.914Z,185.45
2023-01-02T19:13:58.634Z,197.09
2023-01-02T19:17:18.129Z,190.95
2023-01-02T19:20:29.999Z,187.75
2023-01-02T19:23:52.971Z,174.93
2023-01-02T19:27:02.358Z,172.82
2023-01-02T19:30:31.703Z,180.27
2023-01-02T19:33:48.223Z,167.08
2023-01-02T19:37:16.616Z,187.93
2023-01-02T19:40:26.962Z,177.83
2023-01-02T19:43:35.083Z,184.49
2023-01-02T19:46:42.592Z,191.11
2023-01-02T19:49:49.022Z,196.03
2023-01-02T19:52:58.793Z,176.69
2023-01-02T19:56:04.959Z,182.24
2023-01-02T19:59:12.991Z,184.09
2023-01-02T20:02:23.641Z,183.34
2023-01-02T20:05:31.140Z,182.57
2023-01-02T20:08:42.161Z,172.62
2023-01-02T20:12:07.373Z,163.75
2023-01-02T20:15:17.621Z,157.16
2023-01-02T20:18:24.800Z,162.75
2023-01-02T20:21:31.333Z,160.27
2023-01-02T20:24:41.319Z,161.57
2023-01-02T20:27:47.851Z,161.57
2023-01-02T20:30:54.938Z,158.37
2023-01-02T20:34:01.225Z,163.95
2023-01-02T20:37:08.944Z,167.04
2023-01-02T20:40:17.973Z,158.04
2023-01-02T20:43:24.942Z,154.15
2023-01-02T20:46:31.654Z,155.69
2023-01-02T20:49:38.987Z,164.19
2023-01-02T20:52:45.208Z,156.39
2023-01-02T20:55:55.215Z,153.91
2023-01-02T20:59:02.529Z,152.09
2023-01-02T21:02:09.693Z,154.48
2023-01-02T21:05:16.051Z,159.15
2023-01-02T21:08:23.208Z,158.78
2023-01-02T21:11:32.623Z,163.45
2023-01-02T21:14:40.705Z,169.69
2023-01-02T21:17:46.904Z,160.46
2023-01-02T21:20:56.778Z,160.13
2023-01-02T21:24:03.039Z,162.25
2023-01-02T21:27:13.412Z,154.65
2023-01-02T21:30:19.960Z,152.06
2023-01-02T21:33:30.216Z,149.28
2023-01-02T21:36:37.322Z,151.48
2023-01-02T21:39:45.205Z,157.93
2023-01-02T21:42:54.872Z,159.36
2023-01-02T21:46:01.853Z,168.16
2023-01-02T21:49:07.935Z,164.44
2023-01-02T21:52:15.005Z,160.40
2023-01-02T21:55:21.810Z,158.10
2023-01-02T21:58:31.422Z,159.49
2023-01-02T22:01:37.796Z,150.12
2023-01-02T22:04:45.524Z,177.02
2023-01-02T22:07:52.405Z,175.62
2023-01-02T22:11:19.788Z,158.92
2023-01-02T22:14:33.277Z,141.72
2023-01-02T22:17:41.990Z,143.10
2023-01-02T22:20:48.135Z,142.20
2023-01-02T22:23:55.292Z,145.68
2023-01-02T22:27:07.425Z,147.39
2023-01-02T22:30:22.831Z,149.96
2023-01-02T22:33:33.141Z,145.55
2023-01-02T22:36:40.199Z,147.87
2023-01-02T22:39:46.663Z,147.20
2023-01-02T22:43:02.820Z,153.37
2023-01-02T22:46:32.484Z,147.00
2023-01-02T22:49:43.431Z,160.94
2023-01-02T22:52:50.544Z,163.13
2023-01-02T22:55:58.474Z,153.00
2023-01-02T22:59:04.516Z,153.45
2023-01-02T23:02:21.904Z,156.02
2023-01-02T23:05:27.968Z,158.04
2023-01-02T23:08:34.975Z,155.23
2023-01-02T23:11:41.599Z,157.11
2023-01-02T23:14:49.456Z,165.99
2023-01-02T23:18:10.487Z,159.87
2023-01-02T23:21:19.594Z,163.57
2023-01-02T23:24:29.170Z,157.98
2023-01-02T23:27:36.736Z,163.44
2023-01-02T23:30:44.215Z,168.08
2023-01-02T23:33:53.847Z,165.25
2023-01-02T23:37:10.888Z,171.16
2023-01-02T23:40:18.329Z,173.03
2023-01-02T23:43:25.588Z,168.08
2023-01-02T23:46:34.964Z,161.08
2023-01-02T23:49:43.570Z,168.63
2023-01-02T23:52:50.399Z,168.07
2023-01-02T23:55:56.539Z,167.33
2023-01-02T23:59:06.683Z,167.04
